Time;durP1;ratioP1;P1;durP2;ratioP2;P2;SDS_P1;SDS_P2;PMS_P1;PMS_P2;Temp;Humidity;BMP_temperature;BMP_pressure;BME280_temperature;BME280_humidity;BME280_pressure;Samples;Min_cycle;Max_cycle;Signal;HPM_P1;HPM_P2
2022/11/25 00:01:12;;;;;;;34.30;18.70;;;;;;;2.68;96.61;100320.62;1434169;90;21405;-79
2022/11/25 00:03:40;;;;;;;32.13;16.87;;;;;;;2.69;96.38;100319.20;1443021;91;23101;-79
2022/11/25 00:06:24;;;;;;;32.57;15.53;;;;;;;2.68;95.57;100317.53;1507533;91;23064;-78
2022/11/25 00:08:59;;;;;;;18.80;12.17;;;;;;;2.67;94.66;100319.75;1355419;91;22108;-79
2022/11/25 00:11:26;;;;;;;22.23;12.40;;;;;;;2.62;93.83;100321.02;1508436;91;21848;-79
2022/11/25 00:13:53;;;;;;;20.33;12.43;;;;;;;2.60;93.53;100314.58;1356393;91;22688;-79
2022/11/25 00:16:21;;;;;;;20.67;12.30;;;;;;;2.60;93.42;100322.41;1345630;92;21966;-79
2022/11/25 00:18:52;;;;;;;22.90;12.27;;;;;;;2.61;92.28;100330.61;1362816;91;22099;-78
2022/11/25 00:21:23;;;;;;;20.82;13.13;;;;;;;2.62;91.65;100328.39;1441570;91;22518;-78
2022/11/25 00:23:59;;;;;;;31.87;15.05;;;;;;;2.60;90.82;100333.34;1469711;91;21383;-79
2022/11/25 00:26:28;;;;;;;16.13;10.27;;;;;;;2.57;89.64;100342.20;1354002;91;21215;-79
2022/11/25 00:28:58;;;;;;;16.97;9.83;;;;;;;2.51;87.88;100341.30;1353770;91;22098;-79
2022/11/25 00:31:28;;;;;;;12.93;8.83;;;;;;;2.51;88.18;100343.08;1407457;91;23251;-79
2022/11/25 00:33:54;;;;;;;16.67;10.63;;;;;;;2.46;85.98;100348.58;1421868;91;22309;-79
2022/11/25 00:36:26;;;;;;;18.30;10.73;;;;;;;2.53;88.13;100349.85;1430959;90;22229;-79
2022/11/25 00:39:03;;;;;;;14.63;9.10;;;;;;;2.49;85.78;100353.14;1413269;92;22186;-81
2022/11/25 00:44:38;;;;;;;21.33;12.10;;;;;;;2.40;84.82;100354.20;1488015;92;22186;-81
2022/11/25 00:47:17;;;;;;;18.43;8.77;;;;;;;2.46;86.78;100356.42;1340404;92;22060;-79
2022/11/25 00:49:47;;;;;;;20.60;9.97;;;;;;;2.46;86.20;100356.42;1508396;91;22733;-79
2022/11/25 00:52:23;;;;;;;19.37;10.90;;;;;;;2.46;84.86;100363.78;1502882;91;21967;-79
2022/11/25 00:54:50;;;;;;;28.93;14.17;;;;;;;2.49;86.04;100369.29;1425693;91;21995;-78
2022/11/25 00:57:22;;;;;;;20.90;11.30;;;;;;;2.44;85.29;100370.04;1358527;91;21999;-79
2022/11/25 00:59:48;;;;;;;19.77;11.43;;;;;;;2.44;85.29;100370.04;1359726;91;22063;-79
2022/11/25 01:02:17;;;;;;;27.50;13.23;;;;;;;2.43;85.01;100376.21;1432792;91;24129;-80
2022/11/25 01:04:43;;;;;;;25.03;12.40;;;;;;;2.43;85.01;100376.21;1433784;91;23036;-80
2022/11/25 01:07:09;;;;;;;35.47;17.47;;;;;;;2.47;86.52;100372.45;1433474;91;22193;-79
2022/11/25 01:09:36;;;;;;;39.67;16.40;;;;;;;2.48;85.98;100372.37;1427334;91;22162;-77
2022/11/25 01:12:03;;;;;;;35.30;15.13;;;;;;;2.55;86.19;100374.12;1426614;91;22285;-82
2022/11/25 01:14:30;;;;;;;75.90;33.33;;;;;;;2.52;84.78;100382.16;1425195;90;22381;-79
2022/11/25 01:16:56;;;;;;;18.47;10.80;;;;;;;2.50;84.03;100380.09;1424485;90;22309;-79
2022/11/25 01:19:22;;;;;;;19.93;11.23;;;;;;;2.50;84.48;100394.47;1431474;90;23057;-80
2022/11/25 01:21:48;;;;;;;15.40;8.50;;;;;;;2.41;82.92;100379.37;1430921;91;22128;-79
2022/11/25 01:24:15;;;;;;;13.60;9.13;;;;;;;2.40;83.10;100390.77;1426270;91;22718;-79
2022/11/25 01:26:43;;;;;;;20.17;11.43;;;;;;;2.38;83.17;100396.08;1428568;91;21354;-80
2022/11/25 01:29:17;;;;;;;17.00;9.40;;;;;;;2.36;83.75;100387.97;1387884;91;22129;-80
2022/11/25 01:31:45;;;;;;;16.63;9.03;;;;;;;2.36;83.40;100398.41;1422408;91;22095;-80
2022/11/25 01:34:20;;;;;;;13.90;7.97;;;;;;;2.36;83.83;100401.02;1360210;91;22052;-80
2022/11/25 01:36:47;;;;;;;15.57;8.80;;;;;;;2.32;84.25;100398.24;1426460;91;22122;-78
2022/11/25 01:39:22;;;;;;;11.17;7.27;;;;;;;2.32;84.25;100393.59;1425332;91;22734;-78
2022/11/25 01:41:49;;;;;;;16.60;8.77;;;;;;;2.22;83.92;100393.59;1431513;91;22069;-78
2022/11/25 01:44:21;;;;;;;28.33;15.17;;;;;;;2.25;84.96;100393.41;1430488;91;23099;-80
2022/11/25 01:46:52;;;;;;;16.80;9.20;;;;;;;2.27;84.80;100394.59;1429589;91;22075;-79
2022/11/25 01:49:26;;;;;;;14.17;8.07;;;;;;;2.27;84.80;100412.88;1428016;91;21915;-79
2022/11/25 01:52:07;;;;;;;17.30;11.17;;;;;;;2.17;84.02;100396.12;1440079;91;23531;-80
2022/11/25 01:54:41;;;;;;;17.95;12.07;;;;;;;2.17;85.19;100385.67;1429772;90;23101;-80
2022/11/25 01:57:13;;;;;;;18.57;10.53;;;;;;;2.09;84.42;100400.97;1341400;94;21266;-78
2022/11/25 01:59:44;;;;;;;19.57;11.07;;;;;;;2.09;84.42;100400.97;1504296;91;22148;-77
2022/11/25 02:02:12;;;;;;;16.63;9.23;;;;;;;2.12;86.00;100395.55;1437226;91;23059;-76
2022/11/25 02:04:39;;;;;;;14.57;10.40;;;;;;;2.11;86.37;100402.56;1410174;91;21806;-79
2022/11/25 02:07:26;;;;;;;16.50;10.03;;;;;;;2.08;86.54;100404.05;1432673;91;21939;-79
2022/11/25 02:09:54;;;;;;;15.07;9.37;;;;;;;2.06;86.69;100404.60;1510368;91;22009;-79
2022/11/25 02:12:21;;;;;;;18.93;10.70;;;;;;;2.06;86.69;100404.60;1356663;91;21707;-80
2022/11/25 02:14:50;;;;;;;15.60;9.67;;;;;;;2.05;85.88;100413.84;1363364;91;21825;-79
2022/11/25 02:17:17;;;;;;;15.20;10.23;;;;;;;2.05;85.88;100413.84;1399084;90;22088;-79
2022/11/25 02:19:55;;;;;;;18.20;12.47;;;;;;;2.03;86.79;100404.32;1428751;90;21789;-80
2022/11/25 02:22:33;;;;;;;16.77;9.70;;;;;;;2.14;87.12;100412.81;1426084;91;22027;-80
2022/11/25 02:25:07;;;;;;;16.63;10.30;;;;;;;2.08;85.80;100418.41;1421089;91;22585;-78
2022/11/25 02:27:33;;;;;;;17.03;10.80;;;;;;;2.08;85.80;100418.41;1429799;91;22134;-79
2022/11/25 02:29:59;;;;;;;18.03;8.83;;;;;;;2.06;86.54;100416.34;1426589;91;22575;-81
2022/11/25 02:32:25;;;;;;;17.00;10.73;;;;;;;1.92;83.50;100421.56;1430892;91;22228;-79
2022/11/25 02:34:51;;;;;;;13.33;8.93;;;;;;;1.94;83.47;100413.19;1426725;91;22256;-79
2022/11/25 02:37:21;;;;;;;12.90;8.67;;;;;;;1.94;83.85;100411.41;1432070;90;22109;-78
2022/11/25 02:39:50;;;;;;;14.83;8.90;;;;;;;1.83;82.97;100414.30;1433185;91;21340;-78
2022/11/25 02:42:19;;;;;;;11.27;6.73;;;;;;;1.85;82.66;100416.36;1434720;91;21957;-81
2022/11/25 02:44:48;;;;;;;15.67;9.87;;;;;;;1.85;82.66;100416.36;1375846;91;21858;-80
2022/11/25 02:47:15;;;;;;;13.63;8.53;;;;;;;1.89;83.86;100417.37;1354810;91;21688;-81
2022/11/25 02:49:41;;;;;;;29.40;13.30;;;;;;;1.85;82.52;100417.66;1356639;91;21754;-81
2022/11/25 02:52:07;;;;;;;16.07;9.13;;;;;;;1.90;82.79;100424.73;1365122;90;21855;-80
2022/11/25 02:54:33;;;;;;;12.90;7.37;;;;;;;1.74;80.38;100428.27;1358297;91;21316;-78
2022/11/25 02:56:59;;;;;;;12.33;7.87;;;;;;;1.74;80.38;100428.27;1355694;91;21692;-79
2022/11/25 02:59:25;;;;;;;16.40;8.60;;;;;;;1.71;81.35;100432.36;1355604;91;22138;-79
2022/11/25 03:01:51;;;;;;;13.90;8.13;;;;;;;1.57;80.70;100440.16;1421846;91;21426;-79
2022/11/25 03:04:17;;;;;;;19.57;8.83;;;;;;;1.41;81.36;100442.84;1429253;91;21374;-79
2022/11/25 03:06:43;;;;;;;10.50;7.00;;;;;;;1.41;81.36;100442.84;1429798;91;21774;-80
2022/11/25 03:09:09;;;;;;;13.10;7.87;;;;;;;1.43;81.90;100441.42;1430020;91;22503;-79
2022/11/25 03:14:20;;;;;;;9.77;6.03;;;;;;;1.37;82.42;100454.82;1427499;91;21690;-81
2022/11/25 03:16:46;;;;;;;13.87;7.03;;;;;;;1.40;83.03;100453.34;1431851;91;21888;-80
2022/11/25 03:19:12;;;;;;;12.03;7.30;;;;;;;1.41;82.98;100449.80;1433332;91;22245;-80
2022/11/25 03:21:39;;;;;;;10.53;6.33;;;;;;;1.42;82.53;100451.49;1427466;91;21810;-78
2022/11/25 03:24:06;;;;;;;10.73;7.23;;;;;;;1.42;82.53;100451.49;1425984;91;22608;-81
2022/11/25 03:26:32;;;;;;;11.60;6.93;;;;;;;1.53;83.05;100470.81;1407146;92;21779;-80
2022/11/25 03:28:58;;;;;;;12.47;8.20;;;;;;;1.53;83.05;100470.81;1428452;91;22902;-80
2022/11/25 03:31:24;;;;;;;11.60;6.50;;;;;;;1.56;83.16;100473.70;1428240;90;21857;-79
2022/11/25 03:33:51;;;;;;;15.50;6.83;;;;;;;1.53;82.24;100469.97;1426385;91;21657;-79
2022/11/25 03:36:17;;;;;;;12.40;7.43;;;;;;;1.53;83.72;100470.81;1430626;90;21774;-80
2022/11/25 03:38:43;;;;;;;17.93;9.07;;;;;;;1.55;83.67;100471.57;1427322;90;21707;-80
2022/11/25 03:41:09;;;;;;;8.67;6.03;;;;;;;1.59;84.01;100481.36;1429938;90;22278;-79
2022/11/25 03:43:35;;;;;;;8.73;6.20;;;;;;;1.65;84.92;100487.52;1428167;90;21354;-80
2022/11/25 03:46:01;;;;;;;11.90;8.03;;;;;;;1.67;83.38;100489.58;1428699;91;22418;-80
2022/11/25 03:48:28;;;;;;;13.97;8.23;;;;;;;1.62;81.83;100486.86;1427930;91;21686;-80
2022/11/25 03:50:54;;;;;;;11.17;7.57;;;;;;;1.64;82.89;100494.11;1422796;91;21752;-79
2022/11/25 03:53:20;;;;;;;13.60;8.07;;;;;;;1.62;80.36;100499.91;1430750;91;21788;-78
2022/11/25 03:55:47;;;;;;;11.90;7.43;;;;;;;1.64;82.23;100500.64;1438435;90;21465;-80
2022/11/25 03:58:13;;;;;;;13.57;8.53;;;;;;;1.60;80.76;100497.38;1433035;91;21553;-79
2022/11/25 04:00:39;;;;;;;13.40;8.30;;;;;;;1.60;80.76;100497.38;1427355;91;22646;-79
2022/11/25 04:03:05;;;;;;;11.47;7.70;;;;;;;1.64;81.69;100498.03;1429453;91;21922;-79
2022/11/25 04:05:31;;;;;;;11.90;7.63;;;;;;;1.65;80.62;100495.81;1428467;91;21398;-79
2022/11/25 04:07:57;;;;;;;15.70;10.17;;;;;;;1.61;79.88;100504.26;1431256;91;21797;-79
2022/11/25 04:10:23;;;;;;;14.97;8.50;;;;;;;1.68;81.01;100498.24;1425342;91;21458;-79
2022/11/25 04:12:51;;;;;;;11.37;7.83;;;;;;;1.61;79.34;100491.22;1424259;91;21330;-78
2022/11/25 04:15:18;;;;;;;12.33;7.90;;;;;;;1.61;79.34;100491.22;1423991;90;21997;-79
2022/11/25 04:17:44;;;;;;;19.00;9.97;;;;;;;1.64;79.88;100498.89;1354208;91;21873;-80
2022/11/25 04:20:12;;;;;;;12.13;7.90;;;;;;;1.61;79.63;100496.43;1375993;91;21891;-79
2022/11/25 04:22:39;;;;;;;15.40;9.43;;;;;;;1.63;79.44;100499.80;1423908;91;21856;-79
2022/11/25 04:25:07;;;;;;;11.73;7.90;;;;;;;1.63;79.37;100505.02;1429598;90;21833;-80
2022/11/25 04:27:33;;;;;;;12.40;7.67;;;;;;;1.62;78.97;100507.73;1430037;91;21987;-79
2022/11/25 04:29:59;;;;;;;9.83;6.20;;;;;;;1.60;78.74;100509.11;1428600;91;21895;-79
2022/11/25 04:32:25;;;;;;;13.93;8.03;;;;;;;1.57;78.17;100510.12;1428882;91;22002;-78
2022/11/25 04:34:51;;;;;;;12.47;7.63;;;;;;;1.62;80.92;100522.92;1427735;90;21392;-79
2022/11/25 04:37:17;;;;;;;11.80;7.80;;;;;;;1.62;80.92;100522.92;1427211;91;22904;-79
2022/11/25 04:39:43;;;;;;;13.00;8.30;;;;;;;1.63;80.27;100519.84;1424106;91;21826;-78
2022/11/25 04:44:54;;;;;;;11.53;7.50;;;;;;;1.68;79.97;100521.73;1424236;90;23525;-79
2022/11/25 04:47:20;;;;;;;14.47;8.70;;;;;;;1.66;80.36;100529.63;1427882;91;21834;-79
2022/11/25 04:49:46;;;;;;;13.73;8.27;;;;;;;1.64;79.59;100538.03;1433856;91;21459;-79
2022/11/25 04:52:12;;;;;;;12.47;8.50;;;;;;;1.65;80.82;100539.70;1425420;91;21415;-78
2022/11/25 04:54:38;;;;;;;13.83;8.27;;;;;;;1.65;80.82;100539.70;1422829;90;22839;-79
2022/11/25 04:57:05;;;;;;;9.70;6.77;;;;;;;1.64;80.88;100543.25;1421420;91;21722;-79
2022/11/25 04:59:40;;;;;;;14.73;8.03;;;;;;;1.55;80.01;100552.88;1427372;91;22367;-79
2022/11/25 05:02:13;;;;;;;13.40;7.33;;;;;;;1.53;80.46;100552.14;1435955;91;21856;-79
2022/11/25 05:04:42;;;;;;;13.73;8.13;;;;;;;1.45;79.75;100549.95;1494597;91;21696;-78
2022/11/25 05:07:09;;;;;;;13.00;7.87;;;;;;;1.43;79.04;100550.97;1421057;91;21663;-80
2022/11/25 05:09:36;;;;;;;12.13;8.23;;;;;;;1.40;79.27;100560.27;1424219;90;21874;-79
2022/11/25 05:12:03;;;;;;;14.50;8.00;;;;;;;1.40;79.27;100560.27;1423778;90;21865;-79
2022/11/25 05:14:29;;;;;;;11.33;8.53;;;;;;;1.40;79.56;100551.97;1419713;90;22012;-77
2022/11/25 05:16:56;;;;;;;25.03;10.33;;;;;;;1.40;79.81;100561.58;1431402;90;22566;-79
2022/11/25 05:19:25;;;;;;;11.30;7.33;;;;;;;1.39;80.82;100569.03;1419468;91;21977;-79
2022/11/25 05:21:51;;;;;;;17.67;9.83;;;;;;;1.39;81.41;100578.16;1430708;91;21840;-78
2022/11/25 05:24:18;;;;;;;15.07;9.30;;;;;;;1.34;81.90;100581.84;1425241;91;21691;-79
2022/11/25 05:26:44;;;;;;;15.40;9.17;;;;;;;1.31;82.68;100578.57;1433850;91;21383;-78
2022/11/25 05:29:10;;;;;;;12.23;7.97;;;;;;;1.24;82.59;100579.85;1426314;91;21680;-79
2022/11/25 05:31:36;;;;;;;12.80;8.27;;;;;;;1.20;83.12;100577.84;1429635;91;21316;-79
2022/11/25 05:34:03;;;;;;;19.30;10.67;;;;;;;1.19;83.52;100577.95;1433210;91;22610;-79
2022/11/25 05:36:30;;;;;;;21.77;12.33;;;;;;;1.17;83.54;100581.93;1430431;91;21638;-80
2022/11/25 05:38:56;;;;;;;15.10;9.53;;;;;;;1.15;83.64;100586.37;1427536;91;21926;-79
2022/11/25 05:41:24;;;;;;;15.63;10.93;;;;;;;1.14;84.03;100582.10;1432517;91;22534;-79
2022/11/25 05:43:51;;;;;;;16.87;11.13;;;;;;;1.15;84.22;100591.59;1424545;91;21661;-78
2022/11/25 05:46:17;;;;;;;19.10;11.27;;;;;;;1.15;84.54;100593.36;1424263;91;21723;-79
2022/11/25 05:48:43;;;;;;;14.53;9.83;;;;;;;1.11;84.64;100597.44;1431748;90;22548;-79
2022/11/25 05:51:09;;;;;;;14.43;9.07;;;;;;;1.15;84.79;100600.72;1428251;91;21692;-78
2022/11/25 05:53:35;;;;;;;18.27;9.90;;;;;;;1.18;84.86;100606.23;1432068;90;22254;-78
2022/11/25 05:56:05;;;;;;;17.83;9.17;;;;;;;1.18;85.32;100613.62;1427646;91;21692;-79
2022/11/25 05:58:32;;;;;;;16.33;9.97;;;;;;;1.19;85.08;100625.72;1475860;91;21748;-80
2022/11/25 06:00:58;;;;;;;11.63;8.20;;;;;;;1.21;85.00;100625.18;1427396;90;21451;-79
2022/11/25 06:03:27;;;;;;;11.60;7.93;;;;;;;1.25;85.26;100637.11;1430162;91;21723;-79
2022/11/25 06:05:57;;;;;;;11.97;7.53;;;;;;;1.29;85.44;100634.70;1428454;91;22362;-79
2022/11/25 06:08:26;;;;;;;17.97;8.10;;;;;;;1.31;85.05;100648.52;1420607;91;22346;-79
2022/11/25 06:10:53;;;;;;;12.50;8.73;;;;;;;1.32;85.89;100647.61;1421880;91;21646;-78
2022/11/25 06:13:20;;;;;;;15.90;9.47;;;;;;;1.37;86.09;100652.56;1428139;91;21819;-78
2022/11/25 06:15:47;;;;;;;14.73;9.30;;;;;;;1.37;86.15;100651.25;1356822;91;21705;-79
2022/11/25 06:18:16;;;;;;;17.97;10.37;;;;;;;1.40;86.06;100647.64;1426369;90;21616;-80
2022/11/25 06:20:43;;;;;;;14.27;9.57;;;;;;;1.41;86.15;100649.31;1424967;91;22368;-79
2022/11/25 06:23:10;;;;;;;23.87;10.13;;;;;;;1.41;85.25;100652.78;1432570;91;21758;-80
2022/11/25 06:25:36;;;;;;;14.13;8.77;;;;;;;1.40;84.25;100660.68;1429783;91;21586;-80
2022/11/25 06:28:03;;;;;;;19.20;8.80;;;;;;;1.37;84.38;100660.84;1427177;90;22627;-81
2022/11/25 06:30:29;;;;;;;17.93;11.00;;;;;;;1.33;83.87;100663.63;1430641;91;21802;-80
2022/11/25 06:32:55;;;;;;;15.27;9.83;;;;;;;1.28;83.39;100674.75;1405264;91;21967;-79
2022/11/25 06:35:21;;;;;;;17.80;11.47;;;;;;;1.31;84.92;100685.02;1428557;91;21796;-80
2022/11/25 06:37:47;;;;;;;14.83;9.63;;;;;;;1.35;85.80;100691.78;1433044;91;21657;-80
2022/11/25 06:40:13;;;;;;;12.43;8.57;;;;;;;1.44;85.42;100692.18;1429796;91;22505;-78
2022/11/25 06:42:42;;;;;;;22.37;9.17;;;;;;;1.54;85.08;100695.98;1422439;91;21391;-80
2022/11/25 06:45:09;;;;;;;12.67;8.67;;;;;;;1.62;85.71;100698.19;1423822;91;22456;-79
2022/11/25 06:47:35;;;;;;;18.60;9.73;;;;;;;1.67;85.72;100702.23;1423585;91;21816;-79
2022/11/25 06:50:01;;;;;;;12.43;8.33;;;;;;;1.73;85.57;100696.67;1426399;91;21817;-80
2022/11/25 06:52:30;;;;;;;15.87;9.53;;;;;;;1.83;85.55;100702.22;1425082;91;21576;-79
2022/11/25 06:54:56;;;;;;;16.00;9.27;;;;;;;1.83;85.55;100702.22;1353972;91;21682;-79
2022/11/25 06:57:22;;;;;;;15.70;9.63;;;;;;;1.86;85.31;100704.66;1353741;91;21670;-79
2022/11/25 06:59:50;;;;;;;15.63;9.53;;;;;;;1.92;85.16;100702.16;1359951;91;21612;-79
2022/11/25 07:02:16;;;;;;;13.20;8.20;;;;;;;1.96;84.99;100721.50;1429484;91;22929;-80
2022/11/25 07:04:43;;;;;;;12.37;8.97;;;;;;;1.97;84.42;100716.64;1421819;91;21959;-78
2022/11/25 07:07:09;;;;;;;14.10;8.80;;;;;;;2.06;83.01;100716.59;1433058;91;21943;-79
2022/11/25 07:09:36;;;;;;;11.43;7.70;;;;;;;2.06;83.01;100716.59;1428775;91;21958;-79
2022/11/25 07:12:04;;;;;;;14.90;9.30;;;;;;;2.08;83.27;100715.22;1418559;91;21999;-80
2022/11/25 07:14:30;;;;;;;14.83;9.77;;;;;;;2.09;82.08;100715.11;1422967;91;21958;-79
2022/11/25 07:16:57;;;;;;;13.23;9.47;;;;;;;2.15;81.98;100717.84;1426673;91;21858;-78
2022/11/25 07:19:23;;;;;;;17.63;10.97;;;;;;;2.18;80.71;100725.03;1433570;91;22102;-76
2022/11/25 07:21:49;;;;;;;17.60;10.17;;;;;;;2.22;79.81;100722.64;1424860;91;22277;-76
2022/11/25 07:24:30;;;;;;;13.37;8.63;;;;;;;2.22;79.81;100722.64;1423468;90;22038;-77
2022/11/25 07:26:56;;;;;;;21.50;9.68;;;;;;;2.13;78.04;100720.56;1426519;91;22284;-76
2022/11/25 07:29:23;;;;;;;15.17;8.77;;;;;;;2.01;77.66;100727.75;1427776;91;21369;-77
2022/11/25 07:31:50;;;;;;;14.00;8.80;;;;;;;1.99;78.20;100730.94;1429830;91;22204;-76
2022/11/25 07:34:20;;;;;;;12.57;7.67;;;;;;;2.05;78.74;100738.42;1410826;91;22945;-76
2022/11/25 07:36:48;;;;;;;13.77;8.83;;;;;;;2.08;79.73;100739.55;1353517;91;21701;-76
2022/11/25 07:39:21;;;;;;;16.97;9.33;;;;;;;2.08;79.73;100739.55;1389111;91;22116;-76
2022/11/25 07:41:53;;;;;;;15.27;8.83;;;;;;;2.17;80.57;100740.34;1429326;91;22080;-76
2022/11/25 07:44:20;;;;;;;13.43;8.57;;;;;;;2.17;80.57;100740.34;1353591;91;21977;-76
2022/11/25 07:46:48;;;;;;;12.60;7.47;;;;;;;2.13;78.60;100740.14;1356271;91;21722;-76
2022/11/25 07:49:19;;;;;;;13.13;9.03;;;;;;;2.09;78.38;100742.53;1356439;91;21903;-76
2022/11/25 07:51:55;;;;;;;14.07;8.33;;;;;;;2.09;78.38;100742.53;1510429;91;22150;-76
2022/11/25 07:54:22;;;;;;;15.50;9.53;;;;;;;2.16;78.17;100741.28;1441230;91;21427;-76
2022/11/25 07:56:49;;;;;;;14.93;9.30;;;;;;;2.14;78.00;100737.90;1424799;91;22065;-76
2022/11/25 07:59:20;;;;;;;20.33;11.63;;;;;;;2.22;78.55;100746.15;1415338;91;22073;-77
2022/11/25 08:01:49;;;;;;;21.35;13.55;;;;;;;2.36;79.01;100757.12;1349922;92;22943;-77
2022/11/25 08:04:16;;;;;;;24.03;14.00;;;;;;;2.49;79.56;100761.18;1356822;90;21303;-77
2022/11/25 08:06:44;;;;;;;25.30;14.13;;;;;;;2.61;79.12;100756.55;1477258;91;23017;-77
2022/11/25 08:09:17;;;;;;;20.63;13.80;;;;;;;2.78;79.98;100756.05;1427104;91;22158;-76
2022/11/25 08:11:43;;;;;;;21.10;12.60;;;;;;;2.92;80.20;100753.46;1504172;91;21968;-77
2022/11/25 08:14:09;;;;;;;19.73;12.63;;;;;;;2.97;77.81;100757.96;1353924;91;22869;-76
2022/11/25 08:16:37;;;;;;;17.77;10.37;;;;;;;3.04;77.82;100760.57;1360019;91;22071;-76
2022/11/25 08:19:08;;;;;;;15.83;9.93;;;;;;;3.07;76.25;100761.70;1484162;91;22137;-76
2022/11/25 08:21:33;;;;;;;;;;;;;;;3.07;76.25;100761.70;1433720;91;21458;-76
2022/11/25 08:24:01;;;;;;;17.27;10.83;;;;;;;3.25;77.43;100768.06;1421998;91;21117;-76
2022/11/25 08:26:36;;;;;;;12.60;8.57;;;;;;;3.41;78.28;100770.14;1430441;91;22041;-77
2022/11/25 08:29:05;;;;;;;17.20;10.87;;;;;;;3.41;75.76;100778.46;1431470;91;21339;-77
2022/11/25 08:31:35;;;;;;;17.73;11.20;;;;;;;3.53;78.17;100776.40;1356213;91;21436;-77
2022/11/25 08:34:02;;;;;;;16.87;10.80;;;;;;;3.62;77.47;100781.06;1355466;91;22280;-76
2022/11/25 08:36:30;;;;;;;14.27;9.60;;;;;;;3.71;77.81;100786.20;1507726;91;21295;-77
2022/11/25 08:38:59;;;;;;;16.33;10.37;;;;;;;3.76;77.93;100790.69;1357125;91;21276;-77
2022/11/25 08:41:35;;;;;;;18.03;11.50;;;;;;;3.82;78.45;100792.92;1379728;89;21310;-76
2022/11/25 08:44:05;;;;;;;23.80;12.97;;;;;;;3.83;76.90;100797.24;1377440;89;21281;-76
2022/11/25 08:46:36;;;;;;;23.05;12.75;;;;;;;3.70;76.25;100794.52;1523642;90;21319;-77
2022/11/25 08:49:05;;;;;;;21.40;13.68;;;;;;;3.67;76.98;100803.04;1373223;90;21281;-76
2022/11/25 08:51:35;;;;;;;21.90;13.43;;;;;;;3.69;77.75;100807.25;1374848;90;21260;-77
2022/11/25 08:54:03;;;;;;;22.23;15.17;;;;;;;3.72;77.35;100804.44;1532801;89;22266;-77
2022/11/25 08:56:30;;;;;;;22.40;14.47;;;;;;;3.81;77.77;100803.03;1531498;89;21304;-76
2022/11/25 08:58:56;;;;;;;19.70;14.10;;;;;;;3.95;77.28;100797.78;1377036;89;21267;-77
2022/11/25 09:01:23;;;;;;;37.07;22.80;;;;;;;4.07;77.34;100799.62;1361744;90;22614;-76
2022/11/25 09:03:54;;;;;;;25.37;15.67;;;;;;;4.16;76.64;100805.22;1343682;91;21276;-76
2022/11/25 09:06:21;;;;;;;27.77;18.48;;;;;;;4.13;75.06;100811.48;1341554;92;22310;-76
2022/11/25 09:08:47;;;;;;;23.60;13.53;;;;;;;4.15;75.73;100814.86;1339761;91;21238;-76
2022/11/25 09:11:14;;;;;;;22.27;14.10;;;;;;;4.33;76.13;100808.08;1339819;92;21297;-76
2022/11/25 09:13:40;;;;;;;18.40;12.23;;;;;;;4.49;76.46;100811.41;1401927;93;22301;-76
2022/11/25 09:16:07;;;;;;;22.57;15.17;;;;;;;4.69;77.15;100808.33;1412661;92;21437;-76
2022/11/25 09:18:35;;;;;;;25.43;15.80;;;;;;;4.88;76.95;100811.88;1409222;91;21401;-76
2022/11/25 09:21:11;;;;;;;23.57;16.10;;;;;;;5.01;76.01;100804.52;1405105;92;21393;-76
2022/11/25 09:23:38;;;;;;;24.23;15.20;;;;;;;5.16;75.58;100807.41;1486802;91;21327;-77
2022/11/25 09:26:05;;;;;;;22.87;16.00;;;;;;;5.52;73.53;100803.21;1380157;90;21320;-76
2022/11/25 09:28:32;;;;;;;25.97;17.10;;;;;;;6.25;72.56;100803.80;1533248;90;22177;-77
2022/11/25 09:30:58;;;;;;;25.73;16.90;;;;;;;6.96;69.11;100799.43;1376664;90;21282;-76
2022/11/25 09:33:25;;;;;;;26.23;17.90;;;;;;;7.54;69.18;100797.64;1377507;89;21334;-83
2022/11/25 09:35:51;;;;;;;23.47;15.33;;;;;;;7.45;68.76;100795.24;1377948;89;21401;-82
2022/11/25 09:38:17;;;;;;;18.33;12.73;;;;;;;7.84;68.77;100801.46;1377750;89;21363;-81
2022/11/25 09:40:54;;;;;;;24.30;15.13;;;;;;;8.32;68.38;100799.84;1378282;90;22316;-79
2022/11/25 09:46:59;;;;;;;28.15;15.75;;;;;;;8.60;65.87;100798.44;1449584;89;22271;-80
2022/11/25 09:49:54;;;;;;;17.43;13.57;;;;;;;9.15;64.90;100799.16;1442601;89;22442;-76
2022/11/25 09:52:47;;;;;;;18.17;13.10;;;;;;;9.41;64.18;100796.94;1446118;90;21569;-77
2022/11/25 09:55:23;;;;;;;24.17;15.00;;;;;;;9.75;60.46;100800.63;1425989;89;23495;-77
2022/11/25 09:58:33;;;;;;;26.77;17.47;;;;;;;10.13;62.22;100803.89;1424869;90;21392;-75
2022/11/25 10:01:05;;;;;;;21.87;17.00;;;;;;;10.35;59.72;100800.19;1421162;91;22230;-76
2022/11/25 10:03:39;;;;;;;21.67;16.63;;;;;;;10.39;60.31;100801.61;1395244;90;21598;-77
2022/11/25 10:06:27;;;;;;;21.50;15.73;;;;;;;10.53;59.75;100810.10;1421984;90;21488;-76
2022/11/25 10:09:19;;;;;;;25.37;15.77;;;;;;;10.55;59.25;100812.13;1500599;90;21312;-75
2022/11/25 10:11:54;;;;;;;20.17;14.33;;;;;;;10.61;58.88;100811.08;1494494;91;21460;-76
2022/11/25 10:14:46;;;;;;;17.43;12.67;;;;;;;10.42;57.20;100812.41;1490078;92;21423;-75
2022/11/25 10:17:27;;;;;;;20.60;13.87;;;;;;;10.23;58.49;100810.52;1350717;93;21393;-75
2022/11/25 10:20:14;;;;;;;18.95;12.50;;;;;;;9.89;59.41;100813.97;1500848;90;21231;-76
2022/11/25 10:22:44;;;;;;;18.60;13.50;;;;;;;9.34;59.23;100810.30;1325554;96;21481;-82
2022/11/25 10:25:27;;;;;;;18.67;12.20;;;;;;;8.95;60.67;100820.63;1417936;90;21428;-83
2022/11/25 10:28:03;;;;;;;17.17;12.33;;;;;;;8.42;60.15;100819.73;1451368;89;21540;-82
2022/11/25 10:30:47;;;;;;;21.93;14.60;;;;;;;7.96;62.23;100824.20;1454803;89;21886;-83
2022/11/25 10:33:34;;;;;;;21.77;14.93;;;;;;;7.81;63.86;100821.47;1414631;89;21428;-83
2022/11/25 10:36:06;;;;;;;20.53;15.27;;;;;;;7.63;64.75;100821.95;1449613;90;21802;-83
2022/11/25 10:38:44;;;;;;;22.03;15.37;;;;;;;7.36;66.32;100821.42;1450424;89;21495;-79
2022/11/25 10:41:18;;;;;;;24.37;16.57;;;;;;;7.59;66.12;100823.61;1452476;89;22107;-87
2022/11/25 10:43:48;;;;;;;22.33;15.20;;;;;;;7.81;65.64;100828.06;1452493;89;21460;-88
2022/11/25 10:46:37;;;;;;;23.37;16.07;;;;;;;8.19;66.56;100821.06;1450785;89;21466;-87
2022/11/25 10:49:47;;;;;;;24.60;16.80;;;;;;;8.53;66.30;100824.49;1449683;90;21451;-91
2022/11/25 10:52:16;;;;;;;22.90;13.10;;;;;;;8.92;65.64;100818.24;1452190;89;21531;-92
2022/11/25 10:54:47;;;;;;;21.40;14.47;;;;;;;8.85;64.16;100821.02;1478540;90;21332;-93
2022/11/25 10:57:19;;;;;;;29.33;17.93;;;;;;;8.33;63.32;100819.96;1424895;91;21472;-91
2022/11/25 11:00:00;;;;;;;23.83;16.57;;;;;;;8.27;64.88;100815.19;1432957;91;22547;-89
2022/11/25 11:02:36;;;;;;;24.90;17.05;;;;;;;8.22;65.42;100817.34;1435368;91;21266;-89
2022/11/25 11:05:10;;;;;;;24.23;17.73;;;;;;;8.36;65.62;100814.44;1510864;91;21222;-92
2022/11/25 11:07:41;;;;;;;23.23;16.87;;;;;;;8.40;65.27;100817.69;1453355;91;21413;-88
2022/11/25 11:10:24;;;;;;;22.77;16.45;;;;;;;8.45;64.60;100812.89;1432933;91;21355;-92
2022/11/25 11:13:07;;;;;;;37.10;24.20;;;;;;;8.13;64.74;100821.07;1429386;91;22328;-91
2022/11/25 11:15:46;;;;;;;26.93;17.33;;;;;;;8.20;65.93;100816.63;1427372;91;21568;-91
2022/11/25 11:18:40;;;;;;;24.80;17.37;;;;;;;8.00;65.14;100819.07;1450052;91;22366;-89
2022/11/25 11:21:23;;;;;;;23.00;15.97;;;;;;;7.81;65.49;100824.10;1429959;91;21479;-89
2022/11/25 11:23:53;;;;;;;25.50;17.20;;;;;;;7.62;65.81;100816.33;1431231;91;22060;-89
2022/11/25 11:26:27;;;;;;;24.53;15.10;;;;;;;7.50;66.92;100823.84;1433654;91;21457;-91
2022/11/25 11:29:05;;;;;;;22.77;15.07;;;;;;;7.31;66.72;100820.92;1430304;91;21545;-88
2022/11/25 11:31:38;;;;;;;24.57;15.90;;;;;;;7.13;67.09;100831.89;1428632;91;23014;-91
2022/11/25 11:34:37;;;;;;;27.50;18.53;;;;;;;6.87;69.04;100830.38;1430269;91;21530;-91
2022/11/25 11:37:43;;;;;;;27.40;17.23;;;;;;;6.74;69.69;100833.92;1431312;91;21473;-88
2022/11/25 11:40:40;;;;;;;32.43;17.33;;;;;;;6.60;70.31;100826.21;1432109;91;21437;-91
2022/11/25 11:43:30;;;;;;;28.73;18.83;;;;;;;6.49;70.27;100820.89;1418743;91;22458;-89
2022/11/25 11:46:45;;;;;;;20.03;14.23;;;;;;;6.41;71.65;100822.75;1430979;91;21613;-91
2022/11/25 11:49:29;;;;;;;26.80;17.23;;;;;;;6.42;71.67;100820.51;1428641;91;21406;-91